Tiempo atmosférico en la estación meteorológica de Abla, Almería (885 m.)



Fecha
DESCASC
Temp. máxima en grados centígrados (hora)
DESCASC
Temp. mínima en grados centígrados (hora)
DESCASC
Temp. media en grados centígrados
DESCASC
Racha de viento máxima en m/sg (hora)
DESCASC
Velocidad máxima media en intervalos de 10 minutos(hora)
DESCASC
Precipitaciones diarias en mm
DESCASC
Precipitaciones de 00:00 a 06:00 en mm
DESCASC
Precipitaciones de 06:00 a 12:00 en mm
DESCASC
Precipitaciones de 12:00 a 18:00 en mm
DESCASC
Precipitaciones de 18:00 a 24:00 en mm
DESCASC
18-01-2018 15.3 (13:20) 3.4 (04:30) 9.4 9.17 (14:30) 4.72 (14:20) 0 0 0 0 0
17-01-2018 22.5 (15:30) 7.7 (23:20) 15.1 10.28 (13:00) 3.61 (08:10) 0 0 0 0 0
16-01-2018 19.2 (13:30) 3 (02:40) 11.1 7.22 (05:40) 3.33 (07:50) 0 0 0 0 0
15-01-2018 12.5 (14:50) 1 (07:20) 6.8 6.11 (02:20) 2.78 (02:00) 0.1 0 0 0.1 0
14-01-2018 10 (12:50) 3.5 (00:00) 6.8 6.67 (16:20) 3.06 (15:50) 1.4 0 0 1.2 0.2
13-01-2018 14.5 (16:20) 2.2 (00:00) 8.4 7.22 (16:40) 3.61 (16:50) 0 0 0 0 0
12-01-2018 14.9 (16:00) 1.4 (00:00) 8.1 6.67 (02:10) 3.89 (02:00) 0 0 0 0 0
11-01-2018 10.9 (14:00) 4.5 (00:00) 7.7 12.78 (14:50) 6.67 (00:30) 0.1 0.1 0 0 0
10-01-2018 13.4 (13:50) 4.5 (00:00) 8.9 19.44 (15:10) 5.83 (18:00) 2.6 2.4 0 0 0.2
09-01-2018 11.1 (13:40) 1.6 (00:00) 6.4 5.28 (18:40) 2.5 (04:10) 0.9 0 0 0 0.9
08-01-2018 8.6 (12:40) -0.3 (00:00) 4.2 9.17 (14:30) 4.17 (14:20) 0 0 0 0 0
07-01-2018 10.7 (14:00) 0.7 (00:00) 5.7 8.61 (17:10) 4.17 (15:10) 0 0 0 0 0
06-01-2018 12.1 (07:20) 3.1 (00:00) 7.6 14.44 (07:20) 7.5 (07:20) 6.9 0 5.3 1.6 0
05-01-2018 16.2 (14:30) 5.6 (00:00) 10.9 8.61 (10:00) 4.17 (10:20) 0 0 0 0 0
04-01-2018 23.1 (14:30) 8.5 (04:00) 15.8 7.22 (05:20) 3.61 (04:20) 0 0 0 0 0
03-01-2018 22.5 (14:50) 9.1 (00:00) 15.8 6.39 (02:30) 3.89 (01:20) 0 0 0 0 0
02-01-2018 21.3 (13:40) 6.6 (00:00) 13.9 9.17 (09:10) 4.72 (09:10) 0 0 0 0 0
01-01-2018 17.9 (13:50) 4.5 (00:00) 11.2 10 (00:30) 5.28 (00:40) 0 0 0 0 0
31-12-2017 20.2 (14:10) 10.9 (00:00) 15.6 10.28 (23:00) 5.28 (23:59) 0 0 0 0 0
30-12-2017 23 (15:30) 6.5 (00:00) 14.8 5.28 (22:10) 2.78 (21:40) 0 0 0 0 0
29-12-2017 17.7 (13:10) 9.8 (00:00) 13.8 9.44 (00:30) 4.72 (01:40) 0 0 0 0 0
28-12-2017 15.2 (15:10) 7.2 (00:00) 11.2 10 (16:40) 5 (16:20) 0 0 0 0 0
27-12-2017 13.2 (12:10) 7.1 (00:00) 10.1 14.17 (03:50) 7.22 (13:40) 2.3 0 2.2 0.1 0
26-12-2017 15.9 (11:20) 6.4 (00:00) 11.1 10.56 (15:40) 4.72 (14:10) 0 0 0 0 0
25-12-2017 14.7 (13:40) 3 (00:00) 8.8 6.11 (12:00) 2.78 (16:40) 0 0 0 0 0
24-12-2017 13 (14:10) 5.3 (00:00) 9.2 8.89 (15:00) 4.44 (16:00) 0 0 0 0 0
23-12-2017 13.9 (13:30) 2.9 (00:00) 8.4 10 (12:20) 5.28 (12:10) 0 0 0 0 0
22-12-2017 18.4 (14:40) 4.1 (00:00) 11.2 7.22 (14:50) 3.33 (15:50) 0 0 0 0 0
21-12-2017 16.2 (14:30) 3.2 (00:00) 9.7 5.28 (12:10) 2.22 (07:30) 0 0 0 0 0

Gráficas

Temp. máximas Temp. mínimas Temp. medias Precipitaciones Rachas de viento máximas Velocidades máximas media en intervalos de 10 minutos

Datos horarios

Fecha y hora oficial Temperatura (ºC) Velocidad del viento (km/h) Dirección del viento Racha (km/h) Dirección de racha Precipitación (mm) Presión (hPa) Tendencia (hPa) Humedad (%)
2018-01-19 23:00:00 8.5 7 Noroeste 19 Norte 0 -- -- 63
2018-01-19 22:00:00 9.3 6 Noroeste 25 Noroeste 0 -- -- 59
2018-01-19 21:00:00 9.9 5 Norte 19 Norte 0 -- -- 58
2018-01-19 20:00:00 10 8 Noroeste 16 Noroeste 0 -- -- 58
2018-01-19 19:00:00 11.7 5 Norte 19 Noroeste 0 -- -- 52
2018-01-19 18:00:00 12.7 6 Noroeste 19 Norte 0 -- -- 46
2018-01-19 17:00:00 14.3 8 Noroeste 22 Noroeste 0 -- -- 43
2018-01-19 16:00:00 14.4 5 Norte 12 Noroeste 0 -- -- 47
2018-01-19 15:00:00 14.2 3 Norte 10 Norte 0 -- -- 50
2018-01-19 14:00:00 12.7 3 Norte 8 Norte 0 -- -- 55
2018-01-19 13:00:00 12.2 2 Nordeste 8 Este 0 -- -- 60
2018-01-19 12:00:00 10.9 4 Norte 7 Noroeste 0 -- -- 67
2018-01-19 11:00:00 9.5 0 Calma 5 Nordeste 0 -- -- 76
2018-01-19 10:00:00 8.1 0 Calma 9 Este 0 -- -- 80
2018-01-19 09:00:00 7.8 7 Este 17 Este 0 -- -- 73
2018-01-19 08:00:00 8.6 5 Noroeste 13 Este 0 -- -- 68
2018-01-19 07:00:00 8.2 0 Calma 7 Norte 0 -- -- 70
2018-01-19 06:00:00 8.2 2 Norte 15 Oeste 0 -- -- 68
2018-01-19 05:00:00 8.7 0 Calma 12 Noroeste 0 -- -- 65
2018-01-19 04:00:00 7.9 0 Calma 4 Noroeste 0 -- -- 70
2018-01-19 03:00:00 8.6 0 Calma 5 Noroeste 0 -- -- 66
2018-01-19 02:00:00 8.3 2 Noroeste 11 Oeste 0 -- -- 69
2018-01-19 01:00:00 8.5 2 Noroeste 8 Oeste 0 -- -- 67
2018-01-19 00:00:00 8.8 0 Calma 11 Noroeste 0 -- -- 67
2018-01-18 23:00:00 9.1 4 Noroeste 8 Oeste 0 -- -- 65
2018-01-18 22:00:00 9.1 5 Oeste 7 Noroeste 0 -- -- 64
2018-01-18 21:00:00 9.3 2 Norte 8 Oeste 0 -- -- 64
2018-01-18 20:00:00 9.7 0 Calma 7 Este 0 -- -- 61
2018-01-18 19:00:00 10.3 0 Calma 19 Este 0 -- -- 59
2018-01-18 18:00:00 11.5 4 Este 12 Este 0 -- -- 49
2018-01-18 17:00:00 12.4 6 Nordeste 26 Este 0 -- -- 48
2018-01-18 16:00:00 13.2 9 Nordeste 25 Este 0 -- -- 47
2018-01-18 15:00:00 14.4 13 Nordeste 33 Este 0 -- -- 46
2018-01-18 14:00:00 14.1 15 Este 27 Este 0 -- -- 49
2018-01-18 13:00:00 14.2 10 Nordeste 23 Este 0 -- -- 50
2018-01-18 12:00:00 12.5 12 Este 26 Este 0 -- -- 56
2018-01-18 11:00:00 10.9 11 Nordeste 21 Este 0 -- -- 64
2018-01-18 10:00:00 9.1 4 Noroeste 8 Norte 0 -- -- 67
2018-01-18 09:00:00 6.4 0 Calma 8 Norte 0 -- -- 79
2018-01-18 08:00:00 5 0 Calma 8 Noroeste 0 -- -- 78
2018-01-18 07:00:00 4.7 3 Noroeste 10 Noroeste 0 -- -- 76
2018-01-18 06:00:00 5.2 4 Noroeste 9 Norte 0 -- -- 75
2018-01-18 05:00:00 3.9 0 Calma 4 Norte 0 -- -- 77
2018-01-18 04:00:00 4.4 0 Calma 8 Noroeste 0 -- -- 72
2018-01-18 03:00:00 5.1 0 Calma 8 Oeste 0 -- -- 69
2018-01-18 02:00:00 5.8 0 Calma 10 Oeste 0 -- -- 66
2018-01-18 01:00:00 6.7 0 Calma 10 Noroeste 0 -- -- 61
2018-01-18 00:00:00 8.4 2 Noroeste 13 Oeste 0 -- -- 55
2018-01-17 23:00:00 8.1 7 Noroeste 10 Noroeste 0 -- -- 56
2018-01-17 22:00:00 9.8 0 Calma 9 Noroeste 0 -- -- 48
2018-01-17 21:00:00 10.8 3 Noroeste 12 Oeste 0 -- -- 43
2018-01-17 20:00:00 12.5 5 Norte 17 Norte 0 -- -- 42
2018-01-17 19:00:00 14.3 5 Noroeste 19 Norte 0 -- -- 34
2018-01-17 18:00:00 15.4 6 Noroeste 15 Norte 0 -- -- 32
2018-01-17 17:00:00 18.1 7 Nordeste 18 Nordeste 0 -- -- 29
2018-01-17 16:00:00 21.8 4 Nordeste 12 Este 0 -- -- 24
2018-01-17 15:00:00 21.1 6 Norte 19 Noroeste 0 -- -- 28
2018-01-17 14:00:00 20.5 9 Norte 19 Norte 0 -- -- 30
2018-01-17 13:00:00 18.9 10 Noroeste 37 Noroeste 0 -- -- 36
2018-01-17 12:00:00 17.7 9 Noroeste 22 Noroeste 0 -- -- 40
2018-01-17 11:00:00 15.6 9 Noroeste 21 Noroeste 0 -- -- 42
2018-01-17 10:00:00 12.5 9 Noroeste 19 Noroeste 0 -- -- 41
2018-01-17 09:00:00 10.8 6 Noroeste 24 Noroeste 0 -- -- 40
2018-01-17 08:00:00 9.8 10 Noroeste 26 Noroeste 0 -- -- 44
2018-01-17 07:00:00 9.4 10 Noroeste 23 Norte 0 -- -- 46
2018-01-17 06:00:00 9.8 10 Noroeste 25 Noroeste 0 -- -- 48
2018-01-17 05:00:00 9.6 9 Noroeste 22 Noroeste 0 -- -- 53
2018-01-17 04:00:00 10 12 Noroeste 23 Noroeste 0 -- -- 56
2018-01-17 03:00:00 9.9 9 Noroeste 24 Norte 0 -- -- 58
2018-01-17 02:00:00 10.2 6 Norte 23 Noroeste 0 -- -- 60
2018-01-17 01:00:00 9 9 Noroeste 24 Norte 0 -- -- 60
2018-01-17 00:00:00 9.7 12 Noroeste 23 Norte 0 -- -- 57
2018-01-16 23:00:00 10.4 8 Noroeste 22 Noroeste 0 -- -- 54
2018-01-16 22:00:00 10.7 7 Norte 21 Norte 0 -- -- 54
2018-01-16 21:00:00 10.6 10 Noroeste 19 Noroeste 0 -- -- 53
2018-01-16 20:00:00 11.5 6 Norte 21 Noroeste 0 -- -- 50
2018-01-16 19:00:00 12.6 9 Noroeste 21 Noroeste 0 -- -- 48
2018-01-16 18:00:00 13.3 10 Noroeste 19 Noroeste 0 -- -- 45
2018-01-16 17:00:00 16.1 8 Noroeste 22 Noroeste 0 -- -- 41
2018-01-16 16:00:00 18 9 Noroeste 23 Noroeste 0 -- -- 35
2018-01-16 15:00:00 18.1 8 Norte 21 Noroeste 0 -- -- 36
2018-01-16 14:00:00 17.4 6 Noroeste 21 Noroeste 0 -- -- 30
2018-01-16 13:00:00 16.8 6 Norte 18 Norte 0 -- -- 29
2018-01-16 12:00:00 13 5 Norte 17 Norte 0 -- -- 36
2018-01-16 11:00:00 12.2 4 Norte 13 Noroeste 0 -- -- 35
2018-01-16 10:00:00 10.7 5 Noroeste 22 Noroeste 0 -- -- 41
2018-01-16 09:00:00 6.6 9 Noroeste 21 Noroeste 0 -- -- 47
2018-01-16 08:00:00 5.3 11 Noroeste 24 Norte 0 -- -- 54
2018-01-16 07:00:00 4.3 8 Norte 20 Noroeste 0 -- -- 60
2018-01-16 06:00:00 4 8 Norte 26 Noroeste 0 -- -- 64
2018-01-16 05:00:00 3.4 9 Norte 22 Norte 0 -- -- 66
2018-01-16 04:00:00 3.4 9 Noroeste 22 Norte 0 -- -- 66
2018-01-16 03:00:00 3.3 6 Noroeste 15 Noroeste 0 -- -- 61
2018-01-16 02:00:00 3.5 3 Noroeste 13 Norte 0 -- -- 65
2018-01-16 01:00:00 3.7 8 Noroeste 20 Noroeste 0 -- -- 67
2018-01-16 00:00:00 3.5 9 Noroeste 18 Noroeste 0 -- -- 71
2018-01-15 23:00:00 4 5 Norte 17 Noroeste 0 -- -- 72
2018-01-15 22:00:00 4.3 8 Norte 17 Noroeste 0 -- -- 71
2018-01-15 21:00:00 4.9 7 Noroeste 12 Norte 0 -- -- 64
2018-01-15 20:00:00 5.3 4 Noroeste 13 Noroeste 0 -- -- 63
2018-01-15 19:00:00 6.2 5 Noroeste 15 Noroeste 0 -- -- 53
2018-01-15 18:00:00 7.1 4 Noroeste 14 Noroeste 0 -- -- 49
2018-01-15 17:00:00 9.7 4 Noroeste 16 Noroeste 0 -- -- 42
2018-01-15 16:00:00 11.9 4 Noroeste 16 Noroeste 0 -- -- 38
2018-01-15 15:00:00 11.8 6 Norte 12 Norte 0 -- -- 38
2018-01-15 14:00:00 11.3 3 Norte 15 Noroeste 0.1 -- -- 42
2018-01-15 13:00:00 9.2 4 Norte 14 Norte 0 -- -- 47
2018-01-15 12:00:00 9.5 6 Norte 15 Noroeste 0 -- -- 53
2018-01-15 11:00:00 6 6 Noroeste 14 Noroeste 0 -- -- 71
2018-01-15 10:00:00 4.3 5 Norte 12 Noroeste 0 -- -- 76
2018-01-15 09:00:00 2.4 5 Noroeste 18 Noroeste 0 -- -- 89
2018-01-15 08:00:00 1.4 6 Noroeste 13 Oeste 0 -- -- 92
2018-01-15 07:00:00 1.2 7 Noroeste 13 Oeste 0 -- -- 92
2018-01-15 06:00:00 1.4 7 Noroeste 17 Norte 0 -- -- 92
2018-01-15 05:00:00 2.1 4 Norte 15 Norte 0 -- -- 89
2018-01-15 04:00:00 2.7 6 Noroeste 17 Noroeste 0 -- -- 89
2018-01-15 03:00:00 3 9 Noroeste 22 Noroeste 0 -- -- 90
2018-01-15 02:00:00 3.1 10 Noroeste 17 Noroeste 0 -- -- 89
2018-01-15 01:00:00 3.4 5 Norte 15 Noroeste 0 -- -- 84
2018-01-15 00:00:00 3.5 7 Noroeste 14 Noroeste 0 -- -- 86
2018-01-14 23:00:00 4.1 6 Noroeste 19 Norte 0 -- -- 83
2018-01-14 22:00:00 4.1 9 Noroeste 20 Norte 0 -- -- 86
2018-01-14 21:00:00 4.5 7 Noroeste 20 Noroeste 0 -- -- 89
2018-01-14 20:00:00 4.1 5 Noroeste 14 Noroeste 0 -- -- 92
2018-01-14 19:00:00 4.1 3 Norte 8 Noroeste 0.2 -- -- 92
2018-01-14 18:00:00 4.2 5 Noroeste 22 Noroeste 1.2 -- -- 91
2018-01-14 17:00:00 6.1 7 Nordeste 24 Norte 0 -- -- 74
2018-01-14 16:00:00 7.8 10 Nordeste 21 Nordeste 0 -- -- 59
2018-01-14 15:00:00 8.6 7 Norte 19 Este 0 -- -- 53
2018-01-14 14:00:00 9.7 0 Calma 9 Noroeste 0 -- -- 51
2018-01-14 13:00:00 9.3 4 Norte 10 Noroeste 0 -- -- 51
2018-01-14 12:00:00 8 5 Noroeste 12 Noroeste 0 -- -- 56
2018-01-14 11:00:00 8.6 5 Noroeste 14 Noroeste 0 -- -- 53
2018-01-14 10:00:00 7.9 4 Norte 15 Norte 0 -- -- 56
2018-01-14 09:00:00 5.6 4 Norte 17 Norte 0 -- -- 62
2018-01-14 08:00:00 3.5 2 Norte 10 Oeste 0 -- -- 65
2018-01-14 07:00:00 4.9 5 Noroeste 15 Norte 0 -- -- 67
2018-01-14 06:00:00 5 8 Noroeste 15 Norte 0 -- -- 66
2018-01-14 05:00:00 5.2 8 Noroeste 22 Norte 0 -- -- 65
2018-01-14 04:00:00 4.9 5 Noroeste 14 Noroeste 0 -- -- 65
2018-01-14 03:00:00 6.2 5 Norte 22 Oeste 0 -- -- 60
2018-01-14 02:00:00 6.4 6 Norte 23 Norte 0 -- -- 63
2018-01-14 01:00:00 6.1 5 Norte 17 Norte 0 -- -- 66
2018-01-14 00:00:00 6.5 8 Noroeste 23 Norte 0 -- -- 64
2018-01-13 23:00:00 6.9 10 Noroeste 22 Noroeste 0 -- -- 64
2018-01-13 22:00:00 7.1 10 Noroeste 26 Noroeste 0 -- -- 64
2018-01-13 21:00:00 7.2 13 Noroeste 26 Norte 0 -- -- 66
2018-01-13 20:00:00 7.6 6 Noroeste 23 Noroeste 0 -- -- 67
2018-01-13 19:00:00 8.5 5 Noroeste 22 Norte 0 -- -- 64
2018-01-13 18:00:00 9 12 Noroeste 26 Noroeste 0 -- -- 51
2018-01-13 17:00:00 11.1 11 Noroeste 26 Noroeste 0 -- -- 37
2018-01-13 16:00:00 13.7 3 Norte 8 Norte 0 -- -- 36
2018-01-13 15:00:00 10.9 2 Nordeste 10 Nordeste 0 -- -- 39
2018-01-13 14:00:00 9.7 4 Nordeste 22 Norte 0 -- -- 45
2018-01-13 13:00:00 9.9 5 Nordeste 11 Nordeste 0 -- -- 42
2018-01-13 12:00:00 11.7 2 Nordeste 7 Noroeste 0 -- -- 39
2018-01-13 11:00:00 6.4 0 Calma 5 Norte 0 -- -- 49
2018-01-13 10:00:00 5.1 0 Calma 6 Norte 0 -- -- 52
2018-01-13 09:00:00 5.3 2 Noroeste 6 Noroeste 0 -- -- 48
2018-01-13 08:00:00 2.7 0 Calma 5 Oeste 0 -- -- 56
2018-01-13 07:00:00 3.4 0 Calma 9 Oeste 0 -- -- 56
2018-01-13 06:00:00 3.2 5 Noroeste 10 Oeste 0 -- -- 57
2018-01-13 05:00:00 4.7 4 Oeste 10 Noroeste 0 -- -- 53
2018-01-13 04:00:00 3.6 2 Noroeste 7 Oeste 0 -- -- 55
2018-01-13 03:00:00 3.4 0 Calma 5 Norte 0 -- -- 57
2018-01-13 02:00:00 4.8 2 Noroeste 7 Oeste 0 -- -- 53
2018-01-13 01:00:00 5.9 3 Noroeste 8 Oeste 0 -- -- 55
2018-01-13 00:00:00 5.9 3 Noroeste 7 Norte 0 -- -- 52
2018-01-12 23:00:00 6.8 0 Calma 8 Nordeste 0 -- -- 50
2018-01-12 22:00:00 8.3 2 Noroeste 15 Noroeste 0 -- -- 43
2018-01-12 21:00:00 7.7 4 Noroeste 12 Oeste 0 -- -- 47
2018-01-12 20:00:00 7.9 6 Noroeste 13 Noroeste 0 -- -- 38
2018-01-12 19:00:00 8 3 Norte 12 Noroeste 0 -- -- 35
2018-01-12 18:00:00 8.8 5 Norte 12 Norte 0 -- -- 35
2018-01-12 17:00:00 12.2 2 Nordeste 9 Noroeste 0 -- -- 28
2018-01-12 16:00:00 14.1 0 Calma 13 Norte 0 -- -- 27
2018-01-12 15:00:00 13.4 7 Norte 16 Noroeste 0 -- -- 31
2018-01-12 14:00:00 12.6 3 Noroeste 14 Norte 0 -- -- 31
2018-01-12 13:00:00 13.4 3 Norte 15 Este 0 -- -- 30
2018-01-12 12:00:00 12.5 4 Norte 11 Noroeste 0 -- -- 30
2018-01-12 11:00:00 10.5 3 Noroeste 20 Noroeste 0 -- -- 34
2018-01-12 10:00:00 6.2 8 Norte 18 Norte 0 -- -- 45
2018-01-12 09:00:00 3.4 11 Noroeste 22 Norte 0 -- -- 58
2018-01-12 08:00:00 2.5 9 Noroeste 20 Noroeste 0 -- -- 59
2018-01-12 07:00:00 3.1 5 Noroeste 23 Noroeste 0 -- -- 61
2018-01-12 06:00:00 2.4 13 Noroeste 23 Norte 0 -- -- 66
2018-01-12 05:00:00 2.6 10 Noroeste 21 Noroeste 0 -- -- 65
2018-01-12 04:00:00 3.6 8 Noroeste 22 Noroeste 0 -- -- 62
2018-01-12 03:00:00 3.4 12 Noroeste 24 Noroeste 0 -- -- 64
2018-01-12 02:00:00 3.6 14 Noroeste 24 Norte 0 -- -- 64
2018-01-12 01:00:00 3.9 13 Noroeste 23 Norte 0 -- -- 63
2018-01-12 00:00:00 4.9 3 Noroeste 23 Norte 0 -- -- 57
2018-01-11 23:00:00 4.6 10 Noroeste 29 Norte 0 -- -- 63
2018-01-11 22:00:00 4.7 16 Noroeste 31 Norte 0 -- -- 66
2018-01-11 21:00:00 4.9 15 Noroeste 28 Noroeste 0 -- -- 67
2018-01-11 20:00:00 5.3 13 Noroeste 27 Norte 0 -- -- 69
2018-01-11 19:00:00 6.2 7 Noroeste 18 Noroeste 0 -- -- 66
2018-01-11 18:00:00 6.6 8 Noroeste 30 Noroeste 0 -- -- 69
2018-01-11 17:00:00 5.9 15 Noroeste 35 Noroeste 0 -- -- 74
2018-01-11 16:00:00 8.2 13 Noroeste 35 Norte 0 -- -- 56
2018-01-11 15:00:00 10.6 17 Noroeste 46 Noroeste 0 -- -- 49
2018-01-11 14:00:00 10.8 21 Noroeste 42 Noroeste 0 -- -- 52
2018-01-11 13:00:00 9.9 17 Noroeste 35 Norte 0 -- -- 52
2018-01-11 12:00:00 10.1 14 Noroeste 35 Noroeste 0 -- -- 49
2018-01-11 11:00:00 9 14 Noroeste 36 Noroeste 0 -- -- 52
2018-01-11 10:00:00 7.4 17 Noroeste 37 Noroeste 0 -- -- 52
2018-01-11 09:00:00 5.8 17 Noroeste 35 Norte 0 -- -- 56
2018-01-11 08:00:00 5.5 16 Noroeste 31 Noroeste 0 -- -- 53
2018-01-11 07:00:00 4.9 17 Noroeste 32 Noroeste 0 -- -- 61
2018-01-11 06:00:00 4.9 14 Noroeste 34 Noroeste 0 -- -- 68
2018-01-11 05:00:00 5.5 15 Noroeste 35 Noroeste 0 -- -- 67
2018-01-11 04:00:00 6.6 17 Noroeste 36 Noroeste 0 -- -- 62
2018-01-11 03:00:00 6.7 17 Noroeste 40 Oeste 0 -- -- 74
2018-01-11 02:00:00 7.3 21 Noroeste 41 Noroeste 0 -- -- 71
2018-01-11 01:00:00 8 23 Noroeste 45 Noroeste 0.1 -- -- 74
2018-01-11 00:00:00 8.5 19 Noroeste 37 Noroeste 0.2 -- -- 87
2018-01-10 23:00:00 9.3 18 Noroeste 36 Noroeste 0 -- -- 71
2018-01-10 22:00:00 8.9 18 Noroeste 36 Noroeste 0 -- -- 65
2018-01-10 21:00:00 8.9 19 Noroeste 36 Noroeste 0 -- -- 58
2018-01-10 20:00:00 8.8 15 Noroeste 37 Noroeste 0 -- -- 60
2018-01-10 19:00:00 9.1 13 Noroeste 41 Noroeste 0 -- -- 56
2018-01-10 18:00:00 9.9 21 Noroeste 38 Noroeste 0 -- -- 52
2018-01-10 17:00:00 11.1 16 Noroeste 39 Noroeste 0 -- -- 48
2018-01-10 16:00:00 12.5 19 Noroeste 70 Norte 0 -- -- 45
2018-01-10 15:00:00 12.7 18 Noroeste 44 Noroeste 0 -- -- 45
2018-01-10 14:00:00 13 18 Noroeste 40 Noroeste 0 -- -- 45
2018-01-10 13:00:00 12.9 12 Noroeste 28 Noroeste 0 -- -- 49
2018-01-10 12:00:00 12.1 13 Noroeste 29 Norte 0 -- -- 49
2018-01-10 11:00:00 12.3 14 Noroeste 27 Norte 0 -- -- 51
2018-01-10 10:00:00 10.9 10 Noroeste 26 Noroeste 0 -- -- 57
2018-01-10 09:00:00 8.9 12 Noroeste 39 Nordeste 0 -- -- 67
2018-01-10 08:00:00 8.3 10 Norte 24 Noroeste 0 -- -- 83
2018-01-10 07:00:00 5.9 2 Noroeste 9 Nordeste 0 -- -- 95
2018-01-10 06:00:00 5.8 0 Calma 9 Norte 0.1 -- -- 95
2018-01-10 05:00:00 5 3 Noroeste 13 Noroeste 0.3 -- -- 95
2018-01-10 04:00:00 4.9 5 Noroeste 10 Noroeste 0.4 -- -- 94
2018-01-10 03:00:00 4.7 0 Calma 15 Norte 0.4 -- -- 93
2018-01-10 02:00:00 4.8 2 Norte 10 Norte 1 -- -- 91
2018-01-10 01:00:00 5.2 3 Noroeste 10 Noroeste 0.2 -- -- 85
2018-01-10 00:00:00 4.6 7 Norte 10 Norte 0.9 -- -- 80
2018-01-09 23:00:00 6.1 0 Calma 9 Noroeste 0 -- -- 62
2018-01-09 22:00:00 6.7 3 Noroeste 7 Norte 0 -- -- 59
2018-01-09 21:00:00 6.8 3 Noroeste 10 Noroeste 0 -- -- 58
2018-01-09 20:00:00 7.4 3 Noroeste 14 Noroeste 0 -- -- 55
2018-01-09 19:00:00 7.5 4 Norte 19 Norte 0 -- -- 56
2018-01-09 18:00:00 8.1 6 Noroeste 12 Norte 0 -- -- 55
2018-01-09 17:00:00 8.9 4 Noroeste 13 Noroeste 0 -- -- 51
2018-01-09 16:00:00 9.4 4 Noroeste 14 Norte 0 -- -- 49
2018-01-09 15:00:00 9.6 0 Calma 9 Noroeste 0 -- -- 44
2018-01-09 14:00:00 10.1 3 Norte 10 Norte 0 -- -- 45
2018-01-09 13:00:00 9.5 3 Norte 8 Oeste 0 -- -- 47
2018-01-09 12:00:00 10.1 0 Calma 6 Nordeste 0 -- -- 49
2018-01-09 11:00:00 8.1 2 Norte 9 Noroeste 0 -- -- 54
2018-01-09 10:00:00 5.6 6 Noroeste 15 Noroeste 0 -- -- 63
2018-01-09 09:00:00 3.4 7 Noroeste 17 Noroeste 0 -- -- 70
2018-01-09 08:00:00 2.3 4 Norte 12 Norte 0 -- -- 75
2018-01-09 07:00:00 2.1 5 Noroeste 14 Noroeste 0 -- -- 79
2018-01-09 06:00:00 1.9 5 Noroeste 18 Norte 0 -- -- 80
2018-01-09 05:00:00 1.9 9 Noroeste 17 Norte 0 -- -- 78
2018-01-09 04:00:00 2.5 8 Noroeste 17 Norte 0 -- -- 74
2018-01-09 03:00:00 1.9 7 Noroeste 12 Oeste 0 -- -- 78
2018-01-09 02:00:00 3.3 4 Noroeste 14 Norte 0 -- -- 76
2018-01-09 01:00:00 3.1 4 Noroeste 13 Oeste 0 -- -- 82
2018-01-09 00:00:00 3.4 0 Calma 11 Noroeste 0 -- -- 78
2018-01-08 23:00:00 2.8 3 Norte 10 Oeste 0 -- -- 80
2018-01-08 22:00:00 3.3 4 Oeste 10 Oeste 0 -- -- 83
2018-01-08 21:00:00 3.1 3 Norte 10 Norte 0 -- -- 78
2018-01-08 20:00:00 3.6 4 Noroeste 9 Noroeste 0 -- -- 82
2018-01-08 19:00:00 4.3 3 Nordeste 12 Este 0 -- -- 81
2018-01-08 18:00:00 5.7 2 Nordeste 14 Nordeste 0 -- -- 68
2018-01-08 17:00:00 6.4 7 Nordeste 26 Nordeste 0 -- -- 65
2018-01-08 16:00:00 7.8 13 Nordeste 28 Este 0 -- -- 64
2018-01-08 15:00:00 6.5 10 Nordeste 33 Este 0 -- -- 64
2018-01-08 14:00:00 6.7 12 Nordeste 29 Este 0 -- -- 56
2018-01-08 13:00:00 7.5 14 Nordeste 30 Este 0 -- -- 54
2018-01-08 12:00:00 6.9 6 Nordeste 15 Este 0 -- -- 54
2018-01-08 11:00:00 6.3 6 Nordeste 12 Norte 0 -- -- 60
2018-01-08 10:00:00 3.8 3 Nordeste 6 Nordeste 0 -- -- 69
2018-01-08 09:00:00 1.6 5 Noroeste 8 Noroeste 0 -- -- 78
2018-01-08 08:00:00 1.4 2 Norte 10 Oeste 0 -- -- 78
2018-01-08 07:00:00 1.1 4 Noroeste 10 Noroeste 0 -- -- 80
2018-01-08 06:00:00 -0.2 3 Noroeste 10 Noroeste 0 -- -- 85
2018-01-08 05:00:00 0.7 6 Oeste 9 Oeste 0 -- -- 83
2018-01-08 04:00:00 1 6 Noroeste 10 Oeste 0 -- -- 82
2018-01-08 03:00:00 1.6 0 Calma 6 Noroeste 0 -- -- 81
2018-01-08 02:00:00 2.1 2 Noroeste 9 Oeste 0 -- -- 82
2018-01-08 01:00:00 2.2 2 Noroeste 8 Oeste 0 -- -- 78
2018-01-08 00:00:00 2.9 4 Noroeste 9 Noroeste 0 -- -- 74
2018-01-07 23:00:00 2.9 2 Norte 9 Noroeste 0 -- -- 75
2018-01-07 22:00:00 2.8 5 Noroeste 10 Noroeste 0 -- -- 74
2018-01-07 21:00:00 3.3 4 Noroeste 12 Norte 0 -- -- 71
2018-01-07 20:00:00 4.3 2 Norte 9 Norte 0 -- -- 61
2018-01-07 19:00:00 5.6 2 Nordeste 22 Noroeste 0 -- -- 51
2018-01-07 18:00:00 5.8 8 Noroeste 31 Noroeste 0 -- -- 48
2018-01-07 17:00:00 6.9 9 Noroeste 23 Noroeste 0 -- -- 41
2018-01-07 16:00:00 8.9 9 Noroeste 27 Noroeste 0 -- -- 35
2018-01-07 15:00:00 8.2 14 Norte 27 Norte 0 -- -- 31
2018-01-07 14:00:00 9.9 2 Norte 26 Este 0 -- -- 31
2018-01-07 13:00:00 7.9 8 Nordeste 18 Este 0 -- -- 40
2018-01-07 12:00:00 7.5 3 Nordeste 11 Este 0 -- -- 43
2018-01-07 11:00:00 6.2 0 Calma 8 Nordeste 0 -- -- 47
2018-01-07 10:00:00 4.5 2 Noroeste 9 Oeste 0 -- -- 56
2018-01-07 09:00:00 1.1 6 Oeste 12 Oeste 0 -- -- 63
2018-01-07 08:00:00 1.6 5 Noroeste 15 Norte 0 -- -- 55
2018-01-07 07:00:00 2.2 4 Noroeste 24 Norte 0 -- -- 56
2018-01-07 06:00:00 2.3 11 Noroeste 20 Norte 0 -- -- 62
2018-01-07 05:00:00 2.2 5 Norte 19 Norte 0 -- -- 64
2018-01-07 04:00:00 2.8 5 Noroeste 18 Noroeste 0 -- -- 63
2018-01-07 03:00:00 2.8 7 Norte 17 Norte 0 -- -- 64
2018-01-07 02:00:00 3.4 5 Norte 17 Norte 0 -- -- 64
2018-01-07 01:00:00 3.6 8 Noroeste 24 Norte 0 -- -- 71
2018-01-07 00:00:00 3.2 8 Noroeste 23 Noroeste 0 -- -- 79
2018-01-06 23:00:00 3.8 10 Noroeste 23 Noroeste 0 -- -- 71
2018-01-06 22:00:00 3.7 8 Noroeste 18 Noroeste 0 -- -- 78
2018-01-06 21:00:00 4.4 6 Noroeste 20 Sudoeste 0 -- -- 72
2018-01-06 20:00:00 5.1 11 Sur 24 Sur 0 -- -- 70
2018-01-06 19:00:00 5.5 10 Noroeste 24 Noroeste 0 -- -- 67
2018-01-06 18:00:00 5.9 12 Noroeste 28 Noroeste 0 -- -- 69
2018-01-06 17:00:00 6.5 12 Noroeste 33 Noroeste 0 -- -- 69
2018-01-06 16:00:00 5.8 13 Noroeste 28 Noroeste 0 -- -- 77
2018-01-06 15:00:00 5.5 11 Noroeste 27 Noroeste 0.3 -- -- 89
2018-01-06 14:00:00 7.7 10 Nordeste 30 Nordeste 0.1 -- -- 82
2018-01-06 13:00:00 7.1 10 Nordeste 22 Este 1.2 -- -- 92
2018-01-06 12:00:00 6.7 10 Nordeste 33 Este 3.7 -- -- 89
2018-01-06 11:00:00 8.2 14 Nordeste 38 Este 0.1 -- -- 82
2018-01-06 10:00:00 7.2 10 Nordeste 36 Nordeste 1.5 -- -- 89
2018-01-06 09:00:00 9.8 20 Norte 51 Noroeste 0 -- -- 53
2018-01-06 08:00:00 11.4 19 Norte 52 Noroeste 0 -- -- 42
2018-01-06 07:00:00 10.2 6 Noroeste 26 Norte 0 -- -- 47
2018-01-06 06:00:00 8.5 5 Nordeste 16 Este 0 -- -- 48
2018-01-06 05:00:00 8 5 Nordeste 14 Nordeste 0 -- -- 49
2018-01-06 04:00:00 7.4 5 Nordeste 14 Nordeste 0 -- -- 48
2018-01-06 03:00:00 6 3 Noroeste 15 Oeste 0 -- -- 62
2018-01-06 02:00:00 7.2 5 Noroeste 14 Norte 0 -- -- 61
2018-01-06 01:00:00 7.8 3 Noroeste 14 Norte 0 -- -- 62
2018-01-06 00:00:00 6.6 3 Noroeste 14 Noroeste 0 -- -- 72
2018-01-05 23:00:00 6.4 3 Norte 9 Norte 0 -- -- 74
2018-01-05 22:00:00 7.4 2 Nordeste 12 Noroeste 0 -- -- 71
2018-01-05 21:00:00 8.2 3 Noroeste 13 Norte 0 -- -- 65
2018-01-05 20:00:00 9.7 4 Noroeste 9 Norte 0 -- -- 60
2018-01-05 19:00:00 10.5 0 Calma 13 Sur 0 -- -- 57
2018-01-05 18:00:00 11.6 2 Noroeste 19 Sur 0 -- -- 53
2018-01-05 17:00:00 13.4 5 Sudoeste 21 Sudoeste 0 -- -- 49
2018-01-05 16:00:00 15.3 4 Noroeste 21 Noroeste 0 -- -- 46
2018-01-05 15:00:00 15.5 7 Noroeste 27 Norte 0 -- -- 45
2018-01-05 14:00:00 15.8 6 Noroeste 21 Norte 0 -- -- 44
2018-01-05 13:00:00 14.9 6 Noroeste 23 Sur 0 -- -- 46
2018-01-05 12:00:00 13.1 9 Norte 23 Norte 0 -- -- 50
2018-01-05 11:00:00 11.9 8 Norte 28 Noroeste 0 -- -- 53
2018-01-05 10:00:00 9 13 Noroeste 31 Noroeste 0 -- -- 67
2018-01-05 09:00:00 7.1 9 Noroeste 19 Norte 0 -- -- 80
2018-01-05 08:00:00 6.4 9 Noroeste 22 Noroeste 0 -- -- 83
2018-01-05 07:00:00 6.7 10 Noroeste 27 Norte 0 -- -- 89
2018-01-05 06:00:00 6.9 10 Noroeste 24 Norte 0 -- -- 90
2018-01-05 05:00:00 6.5 10 Noroeste 26 Norte 0 -- -- 93
2018-01-05 04:00:00 6.3 9 Noroeste 22 Noroeste 0 -- -- 93
2018-01-05 03:00:00 6.4 10 Noroeste 24 Noroeste 0 -- -- 90
2018-01-05 02:00:00 6.7 5 Noroeste 19 Oeste 0 -- -- 91
2018-01-05 01:00:00 7.8 7 Noroeste 18 Norte 0 -- -- 87
2018-01-05 00:00:00 8.7 4 Noroeste 19 Norte 0 -- -- 81
2018-01-04 23:00:00 11.7 7 Noroeste 21 Noroeste 0 -- -- 62
2018-01-04 22:00:00 13.8 8 Noroeste 19 Noroeste 0 -- -- 60
2018-01-04 21:00:00 14.6 10 Noroeste 23 Noroeste 0 -- -- 56
2018-01-04 20:00:00 15.6 6 Norte 19 Noroeste 0 -- -- 55
2018-01-04 19:00:00 16.4 8 Noroeste 21 Noroeste 0 -- -- 52
2018-01-04 18:00:00 17.5 7 Norte 20 Noroeste 0 -- -- 48
2018-01-04 17:00:00 19.8 8 Noroeste 17 Noroeste 0 -- -- 41
2018-01-04 16:00:00 21.9 8 Noroeste 19 Noroeste 0 -- -- 38
2018-01-04 15:00:00 22.4 9 Noroeste 20 Noroeste 0 -- -- 37
2018-01-04 14:00:00 22.2 10 Norte 20 Noroeste 0 -- -- 38
2018-01-04 13:00:00 22.2 5 Norte 19 Noroeste 0 -- -- 37
2018-01-04 12:00:00 20.4 7 Norte 16 Noroeste 0 -- -- 39
2018-01-04 11:00:00 18.1 7 Noroeste 14 Norte 0 -- -- 44
2018-01-04 10:00:00 15.7 5 Norte 16 Noroeste 0 -- -- 49
2018-01-04 09:00:00 13.5 7 Noroeste 16 Norte 0 -- -- 53
2018-01-04 08:00:00 13.1 3 Noroeste 14 Norte 0 -- -- 55
2018-01-04 07:00:00 12.5 4 Noroeste 15 Noroeste 0 -- -- 59
2018-01-04 06:00:00 10.9 5 Norte 26 Noroeste 0 -- -- 65
2018-01-04 05:00:00 9.4 11 Noroeste 25 Noroeste 0 -- -- 71
2018-01-04 04:00:00 8.5 11 Noroeste 22 Norte 0 -- -- 71
2018-01-04 03:00:00 12.5 5 Noroeste 17 Oeste 0 -- -- 54
2018-01-04 02:00:00 13.5 5 Norte 18 Norte 0 -- -- 54
2018-01-04 01:00:00 13.5 4 Noroeste 21 Norte 0 -- -- 56
2018-01-04 00:00:00 13.1 6 Noroeste 22 Norte 0 -- -- 62
2018-01-03 23:00:00 11.9 7 Norte 21 Noroeste 0 -- -- 67
2018-01-03 22:00:00 12.3 7 Noroeste 18 Norte 0 -- -- 63
2018-01-03 21:00:00 13.8 5 Noroeste 18 Norte 0 -- -- 57
2018-01-03 20:00:00 13.8 5 Noroeste 15 Noroeste 0 -- -- 56
2018-01-03 19:00:00 16.4 7 Norte 19 Noroeste 0 -- -- 49
2018-01-03 18:00:00 17.4 7 Noroeste 16 Noroeste 0 -- -- 45
2018-01-03 17:00:00 19.4 4 Norte 12 Noroeste 0 -- -- 42
2018-01-03 16:00:00 21.6 5 Norte 17 Noroeste 0 -- -- 38
2018-01-03 15:00:00 21.8 6 Norte 18 Noroeste 0 -- -- 38
2018-01-03 14:00:00 21.6 7 Noroeste 15 Noroeste 0 -- -- 41
2018-01-03 13:00:00 21.2 8 Noroeste 16 Noroeste 0 -- -- 42
2018-01-03 12:00:00 18.9 2 Norte 11 Norte 0 -- -- 49
2018-01-03 11:00:00 13.6 6 Norte 16 Norte 0 -- -- 57
2018-01-03 10:00:00 11.9 6 Noroeste 17 Noroeste 0 -- -- 60
2018-01-03 09:00:00 10.3 9 Noroeste 20 Noroeste 0 -- -- 67
2018-01-03 08:00:00 12.1 6 Norte 23 Noroeste 0 -- -- 63
2018-01-03 07:00:00 12.2 10 Noroeste 22 Noroeste 0 -- -- 64
2018-01-03 06:00:00 11.7 9 Noroeste 19 Noroeste 0 -- -- 64
2018-01-03 05:00:00 12.2 4 Norte 21 Norte 0 -- -- 61
2018-01-03 04:00:00 10.4 6 Norte 19 Noroeste 0 -- -- 63
2018-01-03 03:00:00 9.8 8 Noroeste 23 Noroeste 0 -- -- 62
2018-01-03 02:00:00 9.2 5 Noroeste 22 Norte 0 -- -- 66
2018-01-03 01:00:00 9.8 9 Noroeste 18 Norte 0 -- -- 64
2018-01-03 00:00:00 11.2 7 Noroeste 20 Noroeste 0 -- -- 61
2018-01-02 23:00:00 12.5 12 Noroeste 21 Noroeste 0 -- -- 56
2018-01-02 22:00:00 12.1 5 Noroeste 21 Norte 0 -- -- 56
2018-01-02 21:00:00 11.8 9 Noroeste 22 Noroeste 0 -- -- 56
2018-01-02 20:00:00 11.6 11 Noroeste 22 Norte 0 -- -- 56
2018-01-02 19:00:00 12.1 8 Noroeste 19 Norte 0 -- -- 56
2018-01-02 18:00:00 12.9 9 Noroeste 24 Norte 0 -- -- 52
2018-01-02 17:00:00 14.3 10 Noroeste 26 Noroeste 0 -- -- 45
2018-01-02 16:00:00 16.3 14 Noroeste 28 Norte 0 -- -- 38
2018-01-02 15:00:00 18.8 13 Noroeste 23 Noroeste 0 -- -- 26
2018-01-02 14:00:00 20.8 6 Noroeste 22 Norte 0 -- -- 21
2018-01-02 13:00:00 20.2 10 Norte 26 Noroeste 0 -- -- 20
2018-01-02 12:00:00 18.9 13 Noroeste 26 Norte 0 -- -- 20
2018-01-02 11:00:00 16.6 14 Noroeste 26 Noroeste 0 -- -- 22
2018-01-02 10:00:00 14 15 Noroeste 33 Noroeste 0 -- -- 25
2018-01-02 09:00:00 11.6 14 Noroeste 29 Noroeste 0 -- -- 31
2018-01-02 08:00:00 9.9 10 Norte 25 Norte 0 -- -- 36
2018-01-02 07:00:00 9.9 14 Noroeste 25 Noroeste 0 -- -- 42
2018-01-02 06:00:00 8.8 7 Noroeste 22 Norte 0 -- -- 50
2018-01-02 05:00:00 9.8 9 Noroeste 21 Norte 0 -- -- 52
2018-01-02 04:00:00 7.1 5 Norte 15 Noroeste 0 -- -- 55
2018-01-02 03:00:00 9.1 4 Norte 17 Noroeste 0 -- -- 50
2018-01-02 02:00:00 8 5 Noroeste 14 Norte 0 -- -- 45
2018-01-02 01:00:00 9.6 4 Noroeste 18 Noroeste 0 -- -- 39
2018-01-02 00:00:00 9.8 9 Noroeste 19 Norte 0 -- -- 35
2018-01-01 23:00:00 10.2 8 Norte 27 Noroeste 0 -- -- 31
2018-01-01 22:00:00 11 14 Noroeste 31 Noroeste 0 -- -- 30
2018-01-01 21:00:00 11.5 11 Noroeste 28 Noroeste 0 -- -- 29
2018-01-01 20:00:00 11.2 13 Noroeste 27 Norte 0 -- -- 31
2018-01-01 19:00:00 11.8 12 Noroeste 27 Noroeste 0 -- -- 29
2018-01-01 18:00:00 13.2 13 Noroeste 28 Noroeste 0 -- -- 26
2018-01-01 17:00:00 15.3 13 Noroeste 22 Norte 0 -- -- 24
2018-01-01 16:00:00 16.7 8 Norte 20 Norte 0 -- -- 26
2018-01-01 15:00:00 16.7 7 Norte 20 Noroeste 0 -- -- 26
2018-01-01 14:00:00 17.3 9 Norte 18 Norte 0 -- -- 26
2018-01-01 13:00:00 15.7 3 Norte 10 Norte 0 -- -- 38
2018-01-01 12:00:00 14.5 4 Nordeste 10 Este 0 -- -- 38
2018-01-01 11:00:00 11.2 0 Calma 6 Nordeste 0 -- -- 39
2018-01-01 10:00:00 9.1 4 Norte 14 Norte 0 -- -- 39
2018-01-01 09:00:00 5.4 2 Noroeste 20 Oeste 0 -- -- 50
2018-01-01 08:00:00 5.5 10 Noroeste 13 Noroeste 0 -- -- 48
2018-01-01 07:00:00 6.1 5 Noroeste 17 Oeste 0 -- -- 56
2018-01-01 06:00:00 6.1 4 Noroeste 15 Norte 0 -- -- 58
2018-01-01 05:00:00 7.1 6 Noroeste 26 Norte 0 -- -- 57
2018-01-01 04:00:00 8.5 11 Noroeste 34 Nordeste 0 -- -- 56
2018-01-01 03:00:00 8.8 11 Norte 28 Noroeste 0 -- -- 57
2018-01-01 02:00:00 9.3 15 Noroeste 31 Noroeste 0 -- -- 60
2018-01-01 01:00:00 9.7 15 Noroeste 36 Noroeste 0 -- -- 67
2018-01-01 00:00:00 11.6 19 Noroeste 37 Noroeste 0 -- -- 64
2017-12-31 23:00:00 11.8 17 Noroeste 37 Noroeste 0 -- -- 64
2017-12-31 22:00:00 12.1 17 Noroeste 35 Noroeste 0 -- -- 62
2017-12-31 21:00:00 12.2 18 Noroeste 35 Noroeste 0 -- -- 61
2017-12-31 20:00:00 11.8 16 Noroeste 33 Noroeste 0 -- -- 60
2017-12-31 19:00:00 11.6 13 Noroeste 37 Noroeste 0 -- -- 59
2017-12-31 18:00:00 12.2 12 Noroeste 34 Noroeste 0 -- -- 56
2017-12-31 17:00:00 14 13 Noroeste 34 Noroeste 0 -- -- 49
2017-12-31 16:00:00 17.2 9 Noroeste 26 Noroeste 0 -- -- 38
2017-12-31 15:00:00 18.7 9 Noroeste 23 Noroeste 0 -- -- 33
2017-12-31 14:00:00 20 8 Noroeste 24 Noroeste 0 -- -- 33
2017-12-31 13:00:00 18.8 6 Noroeste 21 Noroeste 0 -- -- 32
2017-12-31 12:00:00 15.7 3 Noroeste 16 Oeste 0 -- -- 36
2017-12-31 11:00:00 13.2 4 Noroeste 16 Oeste 0 -- -- 41
2017-12-31 10:00:00 13.4 3 Norte 18 Oeste 0 -- -- 39
2017-12-31 09:00:00 11.6 6 Noroeste 17 Oeste 0 -- -- 40
2017-12-31 08:00:00 11.5 8 Oeste 17 Oeste 0 -- -- 40
2017-12-31 07:00:00 11.4 12 Oeste 19 Oeste 0 -- -- 42
2017-12-31 06:00:00 11.1 9 Oeste 15 Noroeste 0 -- -- 44
2017-12-31 05:00:00 12 4 Noroeste 13 Oeste 0 -- -- 42
2017-12-31 04:00:00 13.3 4 Noroeste 13 Noroeste 0 -- -- 43
2017-12-31 03:00:00 13.5 4 Noroeste 14 Norte 0 -- -- 44
2017-12-31 02:00:00 11.7 9 Noroeste 14 Oeste 0 -- -- 46
2017-12-31 01:00:00 12 4 Noroeste 12 Oeste 0 -- -- 47